createdAt,value
2022-11-19T00:02:01.056Z,10.30
2022-11-19T00:04:28.737Z,8.97
2022-11-19T00:06:56.626Z,7.70
2022-11-19T00:09:24.327Z,7.10
2022-11-19T00:12:10.541Z,9.23
2022-11-19T00:14:38.898Z,8.73
2022-11-19T00:17:06.543Z,10.20
2022-11-19T00:19:34.167Z,8.93
2022-11-19T00:22:01.805Z,10.20
2022-11-19T00:24:29.551Z,8.07
2022-11-19T00:26:57.242Z,9.80
2022-11-19T00:29:24.922Z,8.83
2022-11-19T00:31:52.646Z,8.20
2022-11-19T00:34:20.386Z,10.50
2022-11-19T00:36:48.097Z,8.87
2022-11-19T00:39:15.771Z,8.47
2022-11-19T00:41:43.365Z,8.90
2022-11-19T00:44:10.881Z,9.10
2022-11-19T00:46:38.462Z,9.00
2022-11-19T00:49:06.275Z,8.00
2022-11-19T00:51:33.954Z,8.30
2022-11-19T00:54:01.608Z,7.00
2022-11-19T00:56:29.317Z,7.23
2022-11-19T00:58:58.233Z,7.83
2022-11-19T01:01:26.993Z,7.80
2022-11-19T01:03:56.401Z,8.00
2022-11-19T01:06:26.655Z,7.37
2022-11-19T01:08:55.003Z,8.10
2022-11-19T01:11:33.880Z,9.87
2022-11-19T01:14:05.717Z,9.80
2022-11-19T01:16:41.608Z,9.50
2022-11-19T01:19:11.678Z,10.70
2022-11-19T01:21:39.991Z,10.23
2022-11-19T01:24:08.190Z,10.50
2022-11-19T01:26:35.875Z,11.67
2022-11-19T01:29:03.577Z,9.87
2022-11-19T01:31:31.669Z,9.37
2022-11-19T01:34:00.467Z,11.13
2022-11-19T01:36:30.620Z,12.27
2022-11-19T01:38:58.814Z,11.43
2022-11-19T01:41:33.906Z,14.60
2022-11-19T01:44:07.766Z,12.27
2022-11-19T01:46:38.956Z,12.13
2022-11-19T01:49:20.923Z,12.80
2022-11-19T01:52:02.794Z,12.93
2022-11-19T01:54:51.124Z,12.10
2022-11-19T01:57:19.907Z,12.03
2022-11-19T01:59:52.940Z,10.80
2022-11-19T02:02:22.870Z,12.00
2022-11-19T02:04:52.976Z,8.00
2022-11-19T02:07:29.175Z,12.70
2022-11-19T02:10:01.552Z,13.30
2022-11-19T02:13:21.576Z,13.83
2022-11-19T02:16:21.675Z,13.53
2022-11-19T02:19:24.979Z,10.03
2022-11-19T02:22:45.525Z,11.03
2022-11-19T02:25:59.232Z,14.40
2022-11-19T02:29:31.114Z,13.67
2022-11-19T02:32:23.884Z,11.77
2022-11-19T02:35:29.176Z,15.47
2022-11-19T02:38:42.032Z,14.03
2022-11-19T02:41:45.879Z,15.07
2022-11-19T02:44:54.343Z,14.43
2022-11-19T02:47:47.059Z,14.20
2022-11-19T02:50:51.556Z,15.13
2022-11-19T02:53:19.991Z,12.57
2022-11-19T02:56:05.955Z,15.80
2022-11-19T02:58:55.494Z,15.57
2022-11-19T03:01:47.791Z,14.87
2022-11-19T03:04:32.884Z,16.40
2022-11-19T03:07:19.654Z,15.00
2022-11-19T03:10:03.295Z,14.80
2022-11-19T03:13:34.148Z,13.47
2022-11-19T03:16:39.759Z,12.87
2022-11-19T03:19:44.645Z,15.47
2022-11-19T03:22:57.163Z,13.97
2022-11-19T03:25:58.278Z,12.20
2022-11-19T03:28:38.814Z,17.27
2022-11-19T03:31:10.414Z,13.83
2022-11-19T03:33:50.900Z,18.50
2022-11-19T03:36:30.072Z,14.77
2022-11-19T03:39:10.238Z,19.53
2022-11-19T03:41:44.204Z,17.23
2022-11-19T03:44:38.702Z,21.40
2022-11-19T03:47:21.222Z,16.93
2022-11-19T03:50:10.054Z,18.77
2022-11-19T03:52:37.812Z,17.70
2022-11-19T03:55:06.115Z,20.07
2022-11-19T03:57:34.475Z,18.27
2022-11-19T04:00:02.747Z,19.43
2022-11-19T04:02:42.060Z,19.93
2022-11-19T04:05:10.007Z,21.30
2022-11-19T04:07:37.674Z,18.27
2022-11-19T04:10:06.375Z,20.33
2022-11-19T04:12:34.534Z,21.83
2022-11-19T04:15:02.080Z,19.90
2022-11-19T04:17:29.830Z,24.13
2022-11-19T04:19:57.368Z,23.20
2022-11-19T04:22:25.047Z,20.43
2022-11-19T04:24:52.683Z,21.57
2022-11-19T04:27:20.404Z,19.10
2022-11-19T04:29:48.035Z,16.20
2022-11-19T04:32:15.835Z,19.40
2022-11-19T04:34:43.383Z,21.33
2022-11-19T04:37:11.090Z,22.00
2022-11-19T04:39:39.313Z,17.80
2022-11-19T04:42:07.028Z,22.10
2022-11-19T04:44:34.664Z,20.90
2022-11-19T04:47:02.334Z,16.47
2022-11-19T04:49:29.950Z,21.80
2022-11-19T04:51:57.520Z,22.73
2022-11-19T04:54:25.134Z,20.37
2022-11-19T04:56:52.726Z,20.27
2022-11-19T04:59:20.523Z,19.47
2022-11-19T05:01:49.437Z,20.20
2022-11-19T05:04:17.160Z,21.30
2022-11-19T05:06:44.912Z,20.53
2022-11-19T05:09:12.747Z,22.20
2022-11-19T05:11:40.397Z,22.20
2022-11-19T05:14:08.330Z,20.07
2022-11-19T05:16:35.916Z,13.70
2022-11-19T05:19:03.547Z,20.17
2022-11-19T05:21:31.112Z,19.87
2022-11-19T05:23:58.746Z,20.27
2022-11-19T05:26:26.913Z,21.20
2022-11-19T05:28:54.457Z,24.43
2022-11-19T05:31:22.062Z,22.50
2022-11-19T05:33:49.709Z,20.57
2022-11-19T05:36:17.310Z,21.37
2022-11-19T05:38:44.858Z,16.47
2022-11-19T05:41:12.468Z,17.13
2022-11-19T05:43:40.020Z,20.40
2022-11-19T05:46:07.642Z,23.67
2022-11-19T05:48:35.275Z,22.40
2022-11-19T05:51:03.233Z,17.97
2022-11-19T05:53:30.844Z,21.33
2022-11-19T05:55:58.533Z,19.40
2022-11-19T05:58:26.124Z,20.90
2022-11-19T06:00:59.485Z,18.83
2022-11-19T06:03:27.752Z,17.53
2022-11-19T06:05:59.834Z,20.57
2022-11-19T06:08:28.976Z,16.90
2022-11-19T06:10:56.842Z,16.60
2022-11-19T06:13:24.394Z,21.97
2022-11-19T06:15:52.975Z,16.57
2022-11-19T06:18:20.574Z,21.03
2022-11-19T06:20:48.292Z,21.53
2022-11-19T06:23:15.891Z,19.07
2022-11-19T06:25:43.514Z,16.73
2022-11-19T06:28:11.051Z,19.13
2022-11-19T06:30:39.254Z,20.90
2022-11-19T06:33:06.896Z,18.00
2022-11-19T06:35:34.427Z,18.43
2022-11-19T06:38:02.421Z,16.67
2022-11-19T06:40:30.247Z,17.77
2022-11-19T06:42:57.807Z,20.70
2022-11-19T06:45:25.463Z,18.87
2022-11-19T06:47:53.035Z,20.47
2022-11-19T06:50:20.734Z,19.03
2022-11-19T06:52:48.345Z,17.67
2022-11-19T06:55:16.201Z,18.67
2022-11-19T06:57:43.824Z,16.90
2022-11-19T07:00:15.354Z,20.93
2022-11-19T07:02:43.065Z,18.60
2022-11-19T07:05:10.883Z,19.50
2022-11-19T07:07:41.490Z,17.33
2022-11-19T07:10:09.852Z,19.00
2022-11-19T07:12:38.047Z,15.80
2022-11-19T07:15:06.576Z,15.70
2022-11-19T07:17:34.661Z,18.23
2022-11-19T07:20:02.515Z,16.07
2022-11-19T07:22:30.220Z,18.60
2022-11-19T07:24:57.797Z,19.50
2022-11-19T07:27:25.516Z,18.87
2022-11-19T07:29:53.115Z,18.57
2022-11-19T07:32:20.676Z,17.37
2022-11-19T07:34:48.425Z,14.87
2022-11-19T07:37:16.085Z,16.77
2022-11-19T07:39:43.706Z,17.33
2022-11-19T07:42:30.030Z,16.03
2022-11-19T07:44:57.602Z,16.73
2022-11-19T07:47:25.337Z,15.97
2022-11-19T07:49:54.301Z,16.70
2022-11-19T07:52:22.215Z,17.20
2022-11-19T07:54:50.452Z,17.53
2022-11-19T07:57:18.164Z,13.90
2022-11-19T07:59:45.718Z,15.57
2022-11-19T08:02:15.309Z,15.33
2022-11-19T08:04:43.012Z,17.87
2022-11-19T08:07:10.704Z,19.63
2022-11-19T08:09:38.455Z,18.37
2022-11-19T08:12:06.671Z,18.00
2022-11-19T08:14:34.405Z,18.07
2022-11-19T08:17:20.867Z,12.13
2022-11-19T08:19:48.527Z,11.90
2022-11-19T08:22:16.128Z,11.23
2022-11-19T08:24:44.952Z,17.13
2022-11-19T08:27:13.032Z,14.23
2022-11-19T08:29:41.126Z,14.20
2022-11-19T08:32:08.715Z,14.80
2022-11-19T08:34:36.847Z,17.23
2022-11-19T08:37:04.460Z,12.73
2022-11-19T08:39:32.131Z,14.97
2022-11-19T08:42:22.467Z,10.80
2022-11-19T08:44:50.671Z,13.43
2022-11-19T08:47:18.308Z,9.80
2022-11-19T08:49:45.885Z,10.70
2022-11-19T08:52:15.204Z,12.50
2022-11-19T08:54:43.414Z,12.37
2022-11-19T08:57:11.041Z,13.50
2022-11-19T08:59:38.643Z,11.47
2022-11-19T09:02:06.511Z,12.07
2022-11-19T09:04:34.257Z,13.70
2022-11-19T09:07:02.746Z,15.10
2022-11-19T09:09:30.404Z,10.13
2022-11-19T09:11:58.075Z,10.33
2022-11-19T09:14:25.701Z,12.63
2022-11-19T09:16:53.309Z,12.10
2022-11-19T09:19:21.110Z,12.73
2022-11-19T09:21:48.991Z,12.27
2022-11-19T09:24:16.725Z,11.07
2022-11-19T09:26:48.838Z,10.70
2022-11-19T09:29:21.908Z,15.00
2022-11-19T09:31:49.510Z,11.27
2022-11-19T09:34:17.465Z,9.40
2022-11-19T09:36:45.505Z,15.03
2022-11-19T09:39:13.192Z,14.13
2022-11-19T09:42:06.601Z,10.77
2022-11-19T09:45:04.121Z,12.23
2022-11-19T09:48:32.853Z,11.77
2022-11-19T09:51:17.082Z,10.27
2022-11-19T09:54:19.416Z,14.53
2022-11-19T09:56:51.934Z,12.53
2022-11-19T09:59:40.521Z,10.87
2022-11-19T10:02:23.850Z,11.90
2022-11-19T10:04:52.994Z,10.07
2022-11-19T10:08:24.320Z,9.83
2022-11-19T10:11:40.158Z,11.97
2022-11-19T10:15:12.899Z,11.40
2022-11-19T10:18:18.859Z,12.43
2022-11-19T10:21:54.561Z,10.13
2022-11-19T10:24:50.970Z,13.00
2022-11-19T10:27:47.424Z,11.13
2022-11-19T10:30:29.256Z,12.40
2022-11-19T10:33:34.889Z,12.00
2022-11-19T10:36:21.600Z,12.13
2022-11-19T10:39:03.950Z,12.43
2022-11-19T10:41:51.908Z,8.30
2022-11-19T10:44:49.556Z,9.37
2022-11-19T10:48:11.569Z,11.20
2022-11-19T10:50:42.184Z,10.97
2022-11-19T10:53:36.406Z,12.43
2022-11-19T10:56:27.550Z,10.50
2022-11-19T10:59:24.505Z,11.63
2022-11-19T11:02:03.996Z,6.53
2022-11-19T11:04:31.661Z,9.73
2022-11-19T11:07:04.392Z,10.50
2022-11-19T11:09:42.089Z,11.10
2022-11-19T11:12:45.312Z,6.33
2022-11-19T11:15:27.493Z,9.23
2022-11-19T11:18:12.967Z,10.27
2022-11-19T11:20:51.919Z,9.43
2022-11-19T11:23:28.418Z,8.80
2022-11-19T11:26:17.670Z,8.97
2022-11-19T11:29:06.236Z,9.00
2022-11-19T11:31:45.315Z,9.37
2022-11-19T11:34:44.027Z,9.67
2022-11-19T11:37:13.546Z,10.77
2022-11-19T11:39:44.465Z,9.10
2022-11-19T11:42:19.926Z,10.67
2022-11-19T11:45:01.917Z,8.10
2022-11-19T11:47:38.534Z,8.03
2022-11-19T11:50:24.442Z,10.47
2022-11-19T11:52:57.712Z,8.60
2022-11-19T11:55:25.246Z,9.73
2022-11-19T11:58:06.835Z,9.00
2022-11-19T12:00:47.250Z,8.13
2022-11-19T12:03:20.173Z,10.67
2022-11-19T12:06:16.762Z,9.53
2022-11-19T12:09:19.269Z,10.53
2022-11-19T12:12:24.494Z,5.50
2022-11-19T12:15:18.394Z,10.40
2022-11-19T12:18:48.197Z,8.47
2022-11-19T12:22:28.373Z,7.37
2022-11-19T12:25:31.711Z,8.87
2022-11-19T12:29:08.981Z,9.17
2022-11-19T12:32:12.265Z,10.33
2022-11-19T12:35:40.628Z,8.17
2022-11-19T12:38:44.904Z,9.37
2022-11-19T12:42:00.992Z,9.60
2022-11-19T12:45:36.276Z,9.20
2022-11-19T12:49:15.226Z,10.00
2022-11-19T12:52:46.747Z,8.03
2022-11-19T12:56:07.556Z,10.17
2022-11-19T13:00:04.787Z,10.40
2022-11-19T13:03:34.543Z,9.50
2022-11-19T13:06:35.280Z,9.70
2022-11-19T13:09:25.719Z,10.37
2022-11-19T13:12:08.367Z,6.07
2022-11-19T13:15:02.499Z,9.80
2022-11-19T13:17:47.220Z,9.53
2022-11-19T13:20:27.694Z,9.60
2022-11-19T13:23:05.577Z,9.80
2022-11-19T13:25:56.072Z,10.17
2022-11-19T13:29:00.063Z,8.83
2022-11-19T13:32:01.642Z,9.10
2022-11-19T13:35:01.773Z,11.43
2022-11-19T13:38:37.568Z,9.73
2022-11-19T13:41:21.767Z,9.27
2022-11-19T13:44:09.010Z,10.00
2022-11-19T13:47:00.822Z,8.60
2022-11-19T13:49:41.835Z,7.60
2022-11-19T13:52:46.735Z,8.50
2022-11-19T13:55:42.122Z,9.03
2022-11-19T13:58:27.017Z,11.60
2022-11-19T14:01:51.378Z,9.70
2022-11-19T14:04:51.748Z,11.90
2022-11-19T14:07:31.162Z,9.90
2022-11-19T14:10:27.225Z,10.00
2022-11-19T14:14:03.085Z,10.23
2022-11-19T14:17:14.270Z,13.37
2022-11-19T14:20:17.271Z,14.83
2022-11-19T14:23:15.353Z,12.47
2022-11-19T14:26:08.068Z,13.87
2022-11-19T14:28:53.088Z,14.03
2022-11-19T14:31:22.020Z,9.80
2022-11-19T14:33:49.560Z,12.27
2022-11-19T14:36:49.176Z,11.50
2022-11-19T14:39:47.724Z,9.37
2022-11-19T14:42:23.143Z,9.93
2022-11-19T14:45:05.656Z,9.53
2022-11-19T14:47:43.749Z,10.03
2022-11-19T14:50:29.470Z,9.50
2022-11-19T14:53:02.351Z,8.90
2022-11-19T14:55:34.767Z,8.30
2022-11-19T14:58:21.919Z,9.47
2022-11-19T15:00:51.379Z,8.20
2022-11-19T15:03:28.772Z,8.50
2022-11-19T15:05:57.122Z,8.43
2022-11-19T15:08:24.703Z,7.60
2022-11-19T15:11:12.898Z,7.30
2022-11-19T15:13:44.251Z,7.50
2022-11-19T15:16:28.366Z,8.30
2022-11-19T15:20:10.951Z,8.17
2022-11-19T15:23:29.039Z,8.03
2022-11-19T15:26:17.765Z,7.53
2022-11-19T15:29:28.480Z,7.20
2022-11-19T15:32:59.057Z,6.87
2022-11-19T15:36:27.467Z,7.67
2022-11-19T15:39:32.038Z,7.67
2022-11-19T15:42:13.829Z,7.00
2022-11-19T15:45:16.046Z,11.00
2022-11-19T15:48:09.713Z,6.83
2022-11-19T15:50:38.156Z,6.87
2022-11-19T15:53:24.359Z,7.90
2022-11-19T15:56:08.760Z,6.47
2022-11-19T15:58:47.127Z,6.70
2022-11-19T16:01:20.797Z,5.93
2022-11-19T16:03:53.986Z,7.43
2022-11-19T16:06:30.868Z,8.30
2022-11-19T16:09:07.337Z,7.00
2022-11-19T16:11:57.172Z,6.50
2022-11-19T16:14:48.597Z,8.33
2022-11-19T16:17:41.643Z,8.70
2022-11-19T16:20:10.884Z,8.63
2022-11-19T16:23:10.381Z,10.53
2022-11-19T16:25:44.127Z,13.00
2022-11-19T16:28:30.625Z,11.60
2022-11-19T16:31:05.389Z,10.90
2022-11-19T16:33:35.000Z,9.83
2022-11-19T16:36:20.499Z,9.37
2022-11-19T16:38:52.523Z,11.13
2022-11-19T16:41:43.496Z,8.53
2022-11-19T16:44:21.472Z,10.17
2022-11-19T16:46:50.619Z,15.10
2022-11-19T16:49:50.896Z,12.23
2022-11-19T16:52:45.069Z,18.23
2022-11-19T16:55:18.650Z,15.30
2022-11-19T16:57:57.682Z,15.50
2022-11-19T17:00:35.936Z,10.07
2022-11-19T17:03:21.766Z,12.47
2022-11-19T17:05:54.518Z,9.83
2022-11-19T17:08:38.660Z,11.00
2022-11-19T17:11:57.173Z,10.40
2022-11-19T17:14:39.629Z,11.13
2022-11-19T17:17:41.246Z,11.53
2022-11-19T17:20:28.193Z,11.50
2022-11-19T17:23:02.349Z,12.20
2022-11-19T17:25:32.135Z,12.73
2022-11-19T17:28:02.520Z,11.73
2022-11-19T17:30:36.639Z,13.30
2022-11-19T17:33:06.110Z,14.03
2022-11-19T17:35:46.081Z,14.33
2022-11-19T17:38:29.140Z,15.77
2022-11-19T17:41:02.922Z,13.30
2022-11-19T17:43:57.174Z,13.13
2022-11-19T17:46:29.656Z,40.40
2022-11-19T17:48:57.480Z,49.97
2022-11-19T17:51:26.845Z,43.97
2022-11-19T17:53:56.640Z,24.23
2022-11-19T17:56:31.026Z,15.57
2022-11-19T17:58:59.798Z,13.33
2022-11-19T18:01:28.077Z,11.27
2022-11-19T18:03:56.392Z,13.30
2022-11-19T18:06:24.016Z,10.90
2022-11-19T18:08:52.437Z,12.40
2022-11-19T18:11:25.902Z,12.00
2022-11-19T18:13:59.549Z,14.90
2022-11-19T18:16:37.660Z,13.97
2022-11-19T18:19:26.384Z,12.60
2022-11-19T18:21:56.318Z,13.30
2022-11-19T18:24:24.352Z,12.80
2022-11-19T18:26:52.004Z,11.77
2022-11-19T18:29:19.859Z,11.67
2022-11-19T18:31:53.491Z,11.17
2022-11-19T18:34:25.474Z,11.30
2022-11-19T18:36:53.066Z,11.03
2022-11-19T18:39:21.093Z,11.93
2022-11-19T18:41:48.985Z,11.07
2022-11-19T18:44:37.614Z,10.63
2022-11-19T18:47:11.000Z,10.30
2022-11-19T18:49:39.086Z,12.27
2022-11-19T18:52:15.286Z,11.20
2022-11-19T18:54:43.431Z,11.00
2022-11-19T18:57:13.139Z,11.73
2022-11-19T18:59:41.488Z,10.10
2022-11-19T19:02:11.960Z,10.50
2022-11-19T19:04:39.763Z,10.37
2022-11-19T19:07:07.398Z,12.87
2022-11-19T19:09:35.024Z,12.83
2022-11-19T19:12:18.116Z,12.17
2022-11-19T19:14:51.699Z,12.10
2022-11-19T19:17:19.932Z,12.53
2022-11-19T19:19:47.739Z,12.97
2022-11-19T19:22:15.441Z,14.57
2022-11-19T19:24:43.087Z,15.10
2022-11-19T19:27:11.189Z,15.47
2022-11-19T19:29:39.966Z,15.97
2022-11-19T19:32:08.216Z,13.97
2022-11-19T19:34:36.852Z,11.67
2022-11-19T19:37:06.149Z,14.50
2022-11-19T19:39:34.063Z,14.63
2022-11-19T19:42:01.642Z,14.00
2022-11-19T19:44:29.310Z,17.80
2022-11-19T19:46:56.944Z,16.33
2022-11-19T19:49:25.545Z,16.60
2022-11-19T19:51:53.381Z,15.67
2022-11-19T19:54:21.280Z,17.40
2022-11-19T19:56:49.044Z,13.27
2022-11-19T19:59:16.776Z,12.97
2022-11-19T20:01:50.856Z,14.90
2022-11-19T20:04:18.534Z,14.47
2022-11-19T20:06:48.188Z,14.67
2022-11-19T20:09:17.053Z,13.57
2022-11-19T20:11:44.664Z,13.80
2022-11-19T20:14:12.377Z,14.60
2022-11-19T20:16:41.897Z,16.27
2022-11-19T20:19:15.195Z,25.53
2022-11-19T20:21:43.269Z,23.33
2022-11-19T20:24:13.515Z,24.67
2022-11-19T20:26:43.098Z,16.60
2022-11-19T20:29:14.771Z,18.73
2022-11-19T20:31:48.315Z,18.90
2022-11-19T20:34:17.324Z,14.30
2022-11-19T20:36:45.059Z,14.73
2022-11-19T20:39:12.976Z,15.70
2022-11-19T20:41:58.998Z,16.73
2022-11-19T20:44:26.819Z,21.77
2022-11-19T20:47:00.551Z,18.40
2022-11-19T20:49:35.790Z,20.03
2022-11-19T20:52:04.016Z,20.90
2022-11-19T20:54:32.844Z,16.07
2022-11-19T20:57:01.477Z,21.40
2022-11-19T20:59:29.912Z,20.40
2022-11-19T21:01:58.584Z,20.33
2022-11-19T21:04:28.989Z,19.03
2022-11-19T21:06:56.794Z,18.80
2022-11-19T21:09:25.330Z,18.07
2022-11-19T21:11:53.354Z,15.47
2022-11-19T21:14:21.336Z,17.73
2022-11-19T21:16:49.067Z,17.03
2022-11-19T21:19:16.739Z,16.50
2022-11-19T21:21:45.641Z,18.27
2022-11-19T21:24:14.918Z,16.50
2022-11-19T21:26:42.925Z,15.80
2022-11-19T21:29:10.496Z,16.93
2022-11-19T21:31:39.076Z,16.40
2022-11-19T21:34:18.284Z,14.97
2022-11-19T21:36:49.240Z,15.63
2022-11-19T21:39:19.528Z,15.37
2022-11-19T21:41:47.873Z,15.60
2022-11-19T21:44:21.692Z,14.57
2022-11-19T21:46:50.868Z,31.00
2022-11-19T21:49:19.038Z,31.10
2022-11-19T21:51:46.964Z,18.90
2022-11-19T21:54:14.588Z,18.37
2022-11-19T21:56:42.799Z,19.30
2022-11-19T21:59:10.381Z,17.57
2022-11-19T22:01:38.683Z,15.47
2022-11-19T22:04:06.790Z,16.37
2022-11-19T22:06:34.456Z,14.83
2022-11-19T22:09:02.021Z,14.07
2022-11-19T22:11:29.888Z,15.03
2022-11-19T22:14:09.047Z,18.30
2022-11-19T22:16:40.567Z,16.37
2022-11-19T22:19:12.226Z,16.83
2022-11-19T22:21:40.851Z,22.80
2022-11-19T22:24:08.624Z,23.90
2022-11-19T22:26:36.262Z,17.03
2022-11-19T22:29:04.515Z,18.70
2022-11-19T22:31:32.272Z,16.97
2022-11-19T22:33:59.879Z,18.07
2022-11-19T22:36:33.340Z,16.37
2022-11-19T22:39:01.784Z,17.87
2022-11-19T22:41:29.444Z,18.87
2022-11-19T22:43:58.872Z,19.83
2022-11-19T22:46:26.785Z,18.53
2022-11-19T22:48:54.766Z,16.13
2022-11-19T22:51:26.294Z,15.10
2022-11-19T22:53:55.996Z,16.33
2022-11-19T22:56:29.749Z,17.43
2022-11-19T22:58:58.966Z,16.13
2022-11-19T23:01:34.938Z,19.90
2022-11-19T23:04:07.707Z,17.93
2022-11-19T23:06:37.801Z,17.20
2022-11-19T23:09:08.191Z,16.60
2022-11-19T23:11:54.599Z,16.40
2022-11-19T23:14:22.919Z,18.80
2022-11-19T23:16:51.017Z,18.37
2022-11-19T23:19:19.663Z,16.50
2022-11-19T23:21:48.295Z,17.00
2022-11-19T23:24:15.854Z,15.83
2022-11-19T23:26:43.661Z,17.53
2022-11-19T23:29:11.342Z,17.20
2022-11-19T23:31:41.542Z,17.33
2022-11-19T23:34:09.665Z,17.87
2022-11-19T23:36:41.158Z,17.07
2022-11-19T23:39:17.140Z,18.63
2022-11-19T23:41:46.927Z,18.07
2022-11-19T23:44:14.674Z,18.70
2022-11-19T23:46:42.318Z,18.03
2022-11-19T23:49:12.260Z,21.17
2022-11-19T23:51:41.241Z,19.77
2022-11-19T23:54:12.599Z,20.40
2022-11-19T23:56:40.491Z,19.63
2022-11-19T23:59:08.170Z,19.57
